Terminal Aerodrome Forecast
Issued by NWS Kansas City/Pleasant Hill, MO

Home | Current Version | Previous Version | Text Only | Print | Product List | Glossary On
Versions: 1 2 3 4 5 6 7 8 9 10 11 12 13 14 15 16 17 18 19 20
000
FTUS43 KEAX 190100 AAA
TAFMCI
TAF AMD
KMCI 190108Z 1901/1924 10007KT P6SM FEW018
     FM190600 11006KT 5SM BR BKN008
     FM190900 13006KT 3SM BR OVC005
     FM191500 15010KT P6SM BKN010
     FM191700 17011KT P6SM SCT025
      TEMPO 1917/1920 BKN025=

USA.gov is the U.S. government's official web portal to all federal, state and local government web resources and services.